Time;durP1;ratioP1;P1;durP2;ratioP2;P2;SDS_P1;SDS_P2;PMS_P1;PMS_P2;Temp;Humidity;BMP_temperature;BMP_pressure;BME280_temperature;BME280_humidity;BME280_pressure;Samples;Min_cycle;Max_cycle;Signal;HPM_P1;HPM_P2
2022/09/24 00:02:03;;;;;;;83.87;52.70;;;;;;;;;;5051145;28;20063;-61
2022/09/24 00:04:30;;;;;;;81.33;52.97;;;;;;;;;;5049680;28;20056;-61
2022/09/24 00:06:56;;;;;;;91.27;55.60;;;;;;;;;;5049170;28;20045;-61
2022/09/24 00:09:22;;;;;;;85.83;52.43;;;;;;;;;;5050562;28;20103;-60
2022/09/24 00:11:51;;;;;;;83.73;55.00;;;;;;;;;;5050911;28;20049;-60
2022/09/24 00:14:17;;;;;;;84.47;53.83;;;;;;;;;;5050107;28;20415;-61
2022/09/24 00:16:44;;;;;;;80.67;53.07;;;;;;;;;;5050412;28;20103;-60
2022/09/24 00:19:11;;;;;;;74.53;49.47;;;;;;;;;;5050590;28;20491;-61
2022/09/24 00:21:38;;;;;;;89.97;54.57;;;;;;;;;;5050758;28;20044;-61
2022/09/24 00:24:08;;;;;;;79.57;50.90;;;;;;;;;;5050422;28;20490;-61
2022/09/24 00:26:50;;;;;;;81.27;50.90;;;;;;;;;;5050522;28;20426;-61
2022/09/24 00:29:20;;;;;;;82.03;52.10;;;;;;;;;;5050637;28;20045;-60
2022/09/24 00:31:46;;;;;;;94.80;55.47;;;;;;;;;;5050066;28;20083;-60
2022/09/24 00:34:13;;;;;;;86.20;53.13;;;;;;;;;;5050568;28;20094;-61
2022/09/24 00:36:39;;;;;;;92.40;56.27;;;;;;;;;;5049882;28;20503;-61
2022/09/24 00:39:05;;;;;;;86.53;53.50;;;;;;;;;;5050531;28;20045;-61
2022/09/24 00:41:33;;;;;;;89.67;54.00;;;;;;;;;;5050393;28;20052;-61
2022/09/24 00:43:59;;;;;;;95.50;55.07;;;;;;;;;;5050095;28;20136;-61
2022/09/24 00:46:27;;;;;;;92.37;54.73;;;;;;;;;;5050361;28;20426;-61
2022/09/24 00:49:05;;;;;;;92.87;54.53;;;;;;;;;;5049215;28;20566;-61
2022/09/24 00:51:32;;;;;;;103.17;58.23;;;;;;;;;;5050040;28;20430;-61
2022/09/24 00:54:04;;;;;;;83.53;51.53;;;;;;;;;;5049884;28;20047;-61
2022/09/24 00:56:31;;;;;;;98.63;55.50;;;;;;;;;;5050189;28;20045;-61
2022/09/24 00:59:01;;;;;;;106.23;58.07;;;;;;;;;;5049760;28;20128;-61
2022/09/24 01:01:28;;;;;;;82.83;52.80;;;;;;;;;;5049780;28;20049;-61
2022/09/24 01:03:55;;;;;;;106.43;57.87;;;;;;;;;;5048787;28;20067;-61
2022/09/24 01:06:22;;;;;;;82.13;49.83;;;;;;;;;;5047928;28;20048;-61
2022/09/24 01:08:48;;;;;;;89.57;54.70;;;;;;;;;;5048888;28;20049;-62
2022/09/24 01:11:17;;;;;;;87.90;54.03;;;;;;;;;;5049760;28;20049;-61
2022/09/24 01:13:51;;;;;;;88.17;52.03;;;;;;;;;;5048960;28;20402;-61
2022/09/24 01:16:23;;;;;;;80.57;52.10;;;;;;;;;;5049154;28;20142;-61
2022/09/24 01:18:54;;;;;;;81.90;51.73;;;;;;;;;;5049631;28;20045;-61
2022/09/24 01:21:31;;;;;;;82.83;50.70;;;;;;;;;;5049331;28;20218;-61
2022/09/24 01:24:15;;;;;;;87.17;52.50;;;;;;;;;;5049526;28;20113;-61
2022/09/24 01:27:00;;;;;;;88.97;51.70;;;;;;;;;;5049508;28;20622;-61
2022/09/24 01:29:32;;;;;;;85.23;50.97;;;;;;;;;;5049835;28;20100;-61
2022/09/24 01:32:04;;;;;;;88.07;52.37;;;;;;;;;;5048736;28;20076;-61
2022/09/24 01:34:34;;;;;;;86.47;50.90;;;;;;;;;;5049600;28;20406;-61
2022/09/24 01:37:00;;;;;;;86.83;50.90;;;;;;;;;;5049816;28;20043;-61
2022/09/24 01:39:27;;;;;;;89.63;50.93;;;;;;;;;;5049886;28;20510;-61
2022/09/24 01:41:53;;;;;;;83.33;50.50;;;;;;;;;;5050084;28;20057;-61
2022/09/24 01:44:19;;;;;;;83.60;49.93;;;;;;;;;;5049852;28;20059;-61
2022/09/24 01:46:45;;;;;;;79.90;48.27;;;;;;;;;;5049508;28;20045;-61
2022/09/24 01:49:11;;;;;;;88.00;52.93;;;;;;;;;;5049585;28;20095;-61
2022/09/24 01:51:42;;;;;;;87.53;50.57;;;;;;;;;;5049304;28;20052;-61
2022/09/24 01:54:15;;;;;;;84.97;49.60;;;;;;;;;;5049659;28;20045;-61
2022/09/24 01:56:45;;;;;;;83.78;49.22;;;;;;;;;;5049504;28;20134;-61
2022/09/24 01:59:18;;;;;;;88.27;51.17;;;;;;;;;;5048278;28;20470;-62
2022/09/24 02:01:57;;;;;;;80.03;50.00;;;;;;;;;;5048727;28;20052;-62
2022/09/24 02:04:25;;;;;;;79.80;48.47;;;;;;;;;;5048978;28;20171;-61
2022/09/24 02:06:56;;;;;;;85.00;49.63;;;;;;;;;;5049514;28;20056;-61
2022/09/24 02:09:29;;;;;;;86.03;49.00;;;;;;;;;;5049271;28;20057;-61
2022/09/24 02:11:56;;;;;;;73.35;45.85;;;;;;;;;;5049330;28;20056;-60
2022/09/24 02:14:22;;;;;;;73.57;48.10;;;;;;;;;;5048766;28;20052;-60
2022/09/24 02:16:51;;;;;;;70.53;45.67;;;;;;;;;;5049241;28;20045;-59
2022/09/24 02:19:19;;;;;;;76.73;47.40;;;;;;;;;;5048560;28;20553;-59
2022/09/24 02:21:46;;;;;;;79.43;46.83;;;;;;;;;;5048930;28;20045;-59
2022/09/24 02:24:18;;;;;;;79.23;48.77;;;;;;;;;;5049033;28;20088;-59
2022/09/24 02:26:45;;;;;;;73.13;46.30;;;;;;;;;;5049369;28;20052;-60
2022/09/24 02:29:11;;;;;;;85.73;49.00;;;;;;;;;;5049128;28;20461;-61
2022/09/24 02:31:39;;;;;;;78.77;48.23;;;;;;;;;;5048790;28;20041;-61
2022/09/24 02:34:20;;;;;;;94.67;52.93;;;;;;;;;;5048571;28;20044;-60
2022/09/24 02:36:51;;;;;;;75.47;46.23;;;;;;;;;;5048567;28;20483;-60
2022/09/24 02:39:17;;;;;;;90.30;50.63;;;;;;;;;;5048823;28;20040;-60
2022/09/24 02:41:46;;;;;;;97.93;51.90;;;;;;;;;;5049034;28;20047;-61
2022/09/24 02:44:13;;;;;;;87.80;49.83;;;;;;;;;;5048556;28;20075;-60
2022/09/24 02:46:40;;;;;;;77.53;48.50;;;;;;;;;;5048943;28;20049;-60
2022/09/24 02:49:07;;;;;;;78.53;49.10;;;;;;;;;;5048511;28;20333;-60
2022/09/24 02:51:33;;;;;;;90.27;51.73;;;;;;;;;;5048411;28;20044;-60
2022/09/24 02:54:00;;;;;;;74.07;47.27;;;;;;;;;;5048609;28;20045;-60
2022/09/24 02:56:27;;;;;;;79.57;47.80;;;;;;;;;;5048211;28;20534;-60
2022/09/24 02:58:53;;;;;;;85.10;48.50;;;;;;;;;;5048552;28;20569;-61
2022/09/24 03:01:19;;;;;;;89.10;51.87;;;;;;;;;;5047350;28;20041;-60
2022/09/24 03:03:45;;;;;;;80.47;48.53;;;;;;;;;;5048066;28;20132;-61
2022/09/24 03:06:12;;;;;;;91.33;51.40;;;;;;;;;;5047976;28;20044;-61
2022/09/24 03:08:38;;;;;;;92.70;53.47;;;;;;;;;;5048296;28;20144;-61
2022/09/24 03:11:04;;;;;;;86.27;51.40;;;;;;;;;;5047933;28;20060;-60
2022/09/24 03:13:30;;;;;;;99.03;53.20;;;;;;;;;;5047982;28;20076;-61
2022/09/24 03:15:56;;;;;;;81.53;50.87;;;;;;;;;;5048269;28;20084;-61
2022/09/24 03:18:22;;;;;;;100.57;53.50;;;;;;;;;;5048423;28;20126;-61
2022/09/24 03:20:55;;;;;;;92.63;53.43;;;;;;;;;;5047260;28;20426;-60
2022/09/24 03:23:21;;;;;;;96.13;53.97;;;;;;;;;;5048311;28;20049;-61
2022/09/24 03:25:47;;;;;;;95.87;54.63;;;;;;;;;;5047105;28;20360;-60
2022/09/24 03:28:13;;;;;;;97.40;55.37;;;;;;;;;;5048340;28;20098;-60
2022/09/24 03:33:25;;;;;;;109.70;57.03;;;;;;;;;;5047903;28;20140;-60
2022/09/24 03:35:54;;;;;;;100.47;56.57;;;;;;;;;;5047410;28;20073;-60
2022/09/24 03:38:20;;;;;;;95.23;54.23;;;;;;;;;;5047905;28;20057;-61
2022/09/24 03:40:46;;;;;;;101.03;54.03;;;;;;;;;;5048283;28;20491;-60
2022/09/24 03:43:12;;;;;;;101.73;58.00;;;;;;;;;;5047651;28;20052;-60
2022/09/24 03:45:38;;;;;;;105.00;57.23;;;;;;;;;;5048248;28;20091;-60
2022/09/24 03:48:05;;;;;;;109.87;58.07;;;;;;;;;;5047198;28;20048;-60
2022/09/24 03:50:31;;;;;;;139.20;61.67;;;;;;;;;;5047986;28;20060;-60
2022/09/24 03:52:57;;;;;;;109.80;55.83;;;;;;;;;;5048241;28;20045;-60
2022/09/24 03:55:23;;;;;;;116.80;57.53;;;;;;;;;;5047889;28;20041;-60
2022/09/24 03:57:49;;;;;;;101.20;53.93;;;;;;;;;;5047265;28;20052;-60
2022/09/24 04:00:15;;;;;;;108.40;56.10;;;;;;;;;;5047655;28;20041;-60
2022/09/24 04:02:41;;;;;;;108.67;56.33;;;;;;;;;;5047983;28;20048;-60
2022/09/24 04:05:08;;;;;;;97.03;54.47;;;;;;;;;;5047764;28;20101;-60
2022/09/24 04:07:34;;;;;;;98.20;54.73;;;;;;;;;;5047974;28;20084;-60
2022/09/24 04:10:00;;;;;;;101.10;55.07;;;;;;;;;;5047020;28;20060;-60
2022/09/24 04:12:26;;;;;;;106.33;58.03;;;;;;;;;;5047959;28;20106;-60
2022/09/24 04:14:52;;;;;;;106.83;56.37;;;;;;;;;;5045206;28;20083;-60
2022/09/24 04:17:18;;;;;;;103.77;57.20;;;;;;;;;;5047652;28;20033;-60
2022/09/24 04:19:44;;;;;;;110.03;57.50;;;;;;;;;;5047627;28;20061;-60
2022/09/24 04:22:10;;;;;;;116.60;60.07;;;;;;;;;;5047716;28;20344;-60
2022/09/24 04:24:36;;;;;;;109.67;56.40;;;;;;;;;;5049988;28;20103;-60
2022/09/24 04:27:03;;;;;;;107.63;54.93;;;;;;;;;;5051195;28;20044;-60
2022/09/24 04:29:29;;;;;;;92.93;54.87;;;;;;;;;;5051323;28;20045;-60
2022/09/24 04:31:56;;;;;;;115.73;58.20;;;;;;;;;;5050837;28;20571;-60
2022/09/24 04:34:22;;;;;;;107.80;58.07;;;;;;;;;;5050627;28;20660;-61
2022/09/24 04:36:48;;;;;;;103.03;57.93;;;;;;;;;;5050998;28;20445;-60
2022/09/24 04:39:14;;;;;;;112.53;57.17;;;;;;;;;;5046860;28;20063;-60
2022/09/24 04:41:40;;;;;;;113.40;60.77;;;;;;;;;;5051157;28;20057;-60
2022/09/24 04:44:07;;;;;;;101.93;55.13;;;;;;;;;;5047399;28;20057;-60
2022/09/24 04:46:33;;;;;;;118.40;59.57;;;;;;;;;;5031221;28;20045;-60
2022/09/24 04:48:59;;;;;;;98.43;54.10;;;;;;;;;;5030826;28;20045;-60
2022/09/24 04:51:25;;;;;;;114.10;55.70;;;;;;;;;;5031505;28;20057;-60
2022/09/24 04:53:52;;;;;;;104.33;55.47;;;;;;;;;;5030578;28;20057;-61
2022/09/24 04:56:18;;;;;;;100.70;54.40;;;;;;;;;;5031187;28;20052;-61
2022/09/24 04:58:44;;;;;;;96.07;55.17;;;;;;;;;;5030658;28;20049;-60
2022/09/24 05:01:12;;;;;;;90.80;53.10;;;;;;;;;;5049241;28;20048;-60
2022/09/24 05:03:38;;;;;;;94.53;54.63;;;;;;;;;;5050534;28;20060;-61
2022/09/24 05:06:04;;;;;;;100.83;54.90;;;;;;;;;;5048236;28;20120;-60
2022/09/24 05:08:30;;;;;;;94.73;53.83;;;;;;;;;;5049562;28;20059;-60
2022/09/24 05:10:56;;;;;;;88.77;52.97;;;;;;;;;;5049985;28;20450;-60
2022/09/24 05:13:22;;;;;;;95.93;52.73;;;;;;;;;;5046781;28;20057;-60
2022/09/24 05:15:48;;;;;;;94.03;53.93;;;;;;;;;;5042126;28;20063;-60
2022/09/24 05:18:14;;;;;;;90.97;53.53;;;;;;;;;;5037936;28;20037;-60
2022/09/24 05:20:40;;;;;;;83.97;50.77;;;;;;;;;;5038302;28;20490;-60
2022/09/24 05:23:06;;;;;;;86.03;50.00;;;;;;;;;;5037774;28;20056;-59
2022/09/24 05:27:09;;;;;;;85.17;49.83;;;;;;;;;;5040046;28;20041;-60
2022/09/24 05:28:24;;;;;;;85.63;49.80;;;;;;;;;;5039506;28;20083;-60
2022/09/24 05:30:50;;;;;;;93.40;51.93;;;;;;;;;;5037309;28;20037;-60
2022/09/24 05:33:16;;;;;;;91.23;49.93;;;;;;;;;;5034990;28;20041;-60
2022/09/24 05:35:42;;;;;;;83.50;48.63;;;;;;;;;;5037437;28;20052;-60
2022/09/24 05:38:08;;;;;;;79.70;47.77;;;;;;;;;;5037653;28;20044;-60
2022/09/24 05:40:46;;;;;;;83.73;47.63;;;;;;;;;;5037120;28;20415;-60
2022/09/24 05:43:13;;;;;;;82.57;46.53;;;;;;;;;;5043018;28;20051;-61
2022/09/24 05:45:40;;;;;;;74.40;44.57;;;;;;;;;;5041907;28;20087;-60
2022/09/24 05:48:06;;;;;;;68.63;43.10;;;;;;;;;;5040957;28;20070;-61
2022/09/24 05:50:33;;;;;;;73.27;44.13;;;;;;;;;;5034459;28;20121;-60
2022/09/24 05:53:03;;;;;;;67.10;42.50;;;;;;;;;;5048279;28;20040;-61
2022/09/24 05:55:29;;;;;;;75.83;44.87;;;;;;;;;;5049048;28;20047;-61
2022/09/24 05:57:55;;;;;;;69.77;42.73;;;;;;;;;;5048947;28;20045;-61
2022/09/24 06:00:21;;;;;;;66.07;40.63;;;;;;;;;;5048954;28;20052;-61
2022/09/24 06:02:49;;;;;;;70.63;42.43;;;;;;;;;;5048965;28;20098;-60
2022/09/24 06:05:15;;;;;;;64.30;39.60;;;;;;;;;;5048586;28;20056;-61
2022/09/24 06:07:41;;;;;;;65.80;40.83;;;;;;;;;;5048922;28;20048;-60
2022/09/24 06:10:08;;;;;;;59.63;38.10;;;;;;;;;;5049095;28;20118;-61
2022/09/24 06:12:34;;;;;;;61.80;38.90;;;;;;;;;;5048898;28;20059;-60
2022/09/24 06:15:00;;;;;;;64.63;40.13;;;;;;;;;;5045918;28;20113;-61
2022/09/24 06:17:27;;;;;;;60.00;37.97;;;;;;;;;;5049427;28;20122;-60
2022/09/24 06:19:54;;;;;;;60.13;38.17;;;;;;;;;;5045994;28;20064;-60
2022/09/24 06:22:20;;;;;;;64.13;37.97;;;;;;;;;;5048594;28;20438;-61
2022/09/24 06:24:46;;;;;;;63.30;37.50;;;;;;;;;;5049131;28;20048;-61
2022/09/24 06:27:12;;;;;;;61.60;37.07;;;;;;;;;;5048994;28;20049;-60
2022/09/24 06:29:38;;;;;;;59.57;36.40;;;;;;;;;;5048892;28;20055;-61
2022/09/24 06:32:04;;;;;;;56.43;34.87;;;;;;;;;;5048356;28;20076;-61
2022/09/24 06:34:30;;;;;;;57.33;35.77;;;;;;;;;;5049036;28;20049;-61
2022/09/24 06:36:56;;;;;;;62.20;36.67;;;;;;;;;;5048519;28;20575;-61
2022/09/24 06:39:24;;;;;;;65.13;37.00;;;;;;;;;;5048930;28;20155;-61
2022/09/24 06:41:50;;;;;;;75.87;39.67;;;;;;;;;;5048648;28;20126;-61
2022/09/24 06:44:18;;;;;;;67.73;38.23;;;;;;;;;;5047625;28;20517;-61
2022/09/24 06:46:44;;;;;;;69.93;39.23;;;;;;;;;;5047649;28;20051;-62
2022/09/24 06:49:11;;;;;;;86.13;41.47;;;;;;;;;;5048375;28;20068;-62
2022/09/24 06:51:37;;;;;;;86.30;39.93;;;;;;;;;;5048848;28;20048;-63
2022/09/24 06:54:03;;;;;;;90.80;42.93;;;;;;;;;;5047061;28;20052;-62
2022/09/24 06:56:29;;;;;;;135.07;48.50;;;;;;;;;;5048456;28;20041;-62
2022/09/24 06:58:56;;;;;;;123.33;47.00;;;;;;;;;;5048680;28;20394;-62
2022/09/24 07:01:22;;;;;;;136.67;50.67;;;;;;;;;;5048122;28;20414;-62
2022/09/24 07:03:48;;;;;;;281.70;66.37;;;;;;;;;;5048395;28;20048;-62
2022/09/24 07:06:14;;;;;;;189.23;55.73;;;;;;;;;;5048750;28;20453;-63
2022/09/24 07:08:40;;;;;;;189.87;57.87;;;;;;;;;;5048442;28;20171;-62
2022/09/24 07:11:07;;;;;;;173.83;54.10;;;;;;;;;;5047976;28;20716;-63
2022/09/24 07:13:33;;;;;;;266.97;66.87;;;;;;;;;;5048112;28;20437;-62
2022/09/24 07:16:00;;;;;;;193.60;57.27;;;;;;;;;;5048278;28;20494;-62
2022/09/24 07:18:26;;;;;;;321.00;72.33;;;;;;;;;;5048171;28;20041;-62
2022/09/24 07:20:55;;;;;;;202.87;57.30;;;;;;;;;;5048303;28;20037;-62
2022/09/24 07:23:22;;;;;;;212.93;61.30;;;;;;;;;;5047745;28;20183;-62
2022/09/24 07:25:49;;;;;;;328.70;71.57;;;;;;;;;;5048126;28;20052;-62
2022/09/24 07:28:15;;;;;;;355.33;74.43;;;;;;;;;;5047647;28;20045;-62
2022/09/24 07:30:41;;;;;;;231.27;60.03;;;;;;;;;;5048002;28;20081;-62
2022/09/24 07:33:07;;;;;;;344.57;73.87;;;;;;;;;;5047490;28;20041;-62
2022/09/24 07:35:36;;;;;;;318.50;73.53;;;;;;;;;;5047874;28;20041;-62
2022/09/24 07:38:15;;;;;;;302.03;68.80;;;;;;;;;;5047352;28;20048;-62
2022/09/24 07:40:43;;;;;;;49.07;24.43;;;;;;;;;;5037698;28;20053;-63
2022/09/24 07:43:12;;;;;;;72.93;27.30;;;;;;;;;;5027947;28;20049;-62
2022/09/24 07:45:38;;;;;;;139.97;40.17;;;;;;;;;;5028293;28;20084;-63
2022/09/24 07:48:05;;;;;;;39.43;20.33;;;;;;;;;;5027870;28;20057;-63
2022/09/24 07:50:32;;;;;;;98.27;26.13;;;;;;;;;;5027887;28;20495;-63
2022/09/24 07:52:59;;;;;;;59.20;22.80;;;;;;;;;;5028082;28;20087;-64
2022/09/24 07:55:25;;;;;;;71.43;27.90;;;;;;;;;;5027962;28;20057;-63
2022/09/24 07:57:52;;;;;;;127.20;30.93;;;;;;;;;;5028858;28;20041;-62
2022/09/24 08:00:18;;;;;;;145.67;35.30;;;;;;;;;;5031413;28;20439;-63
2022/09/24 08:02:45;;;;;;;137.63;35.23;;;;;;;;;;5014168;28;20499;-63
2022/09/24 08:05:12;;;;;;;72.20;28.03;;;;;;;;;;5031238;28;20534;-63
2022/09/24 08:07:38;;;;;;;78.63;28.67;;;;;;;;;;5031501;28;20045;-62
2022/09/24 08:10:04;;;;;;;69.70;27.63;;;;;;;;;;5031270;28;20549;-63
2022/09/24 08:12:30;;;;;;;80.03;28.67;;;;;;;;;;5031374;28;20048;-63
2022/09/24 08:14:56;;;;;;;94.63;30.77;;;;;;;;;;5031509;28;20045;-62
2022/09/24 08:17:22;;;;;;;110.53;32.90;;;;;;;;;;5031453;28;20488;-63
2022/09/24 08:19:50;;;;;;;134.90;35.97;;;;;;;;;;5030984;28;20553;-63
2022/09/24 08:22:16;;;;;;;81.37;28.23;;;;;;;;;;5030846;28;20085;-63
2022/09/24 08:24:42;;;;;;;38.70;20.47;;;;;;;;;;5030933;28;20085;-62
2022/09/24 08:27:09;;;;;;;92.27;28.53;;;;;;;;;;5030854;28;20049;-63
2022/09/24 08:29:35;;;;;;;53.47;21.03;;;;;;;;;;5030971;28;20048;-63
2022/09/24 08:32:01;;;;;;;77.33;26.70;;;;;;;;;;5046242;28;20087;-63
2022/09/24 08:34:28;;;;;;;56.70;21.40;;;;;;;;;;5049120;28;20398;-63
2022/09/24 08:36:54;;;;;;;59.00;22.97;;;;;;;;;;5049280;28;20147;-63
2022/09/24 08:39:20;;;;;;;54.47;19.97;;;;;;;;;;5037011;28;20084;-63
2022/09/24 08:42:05;;;;;;;35.93;15.37;;;;;;;;;;5049142;28;20045;-63
2022/09/24 08:47:44;;;;;;;42.57;15.10;;;;;;;;;;5051274;28;20045;-63
2022/09/24 08:50:16;;;;;;;39.00;14.80;;;;;;;;;;5051209;28;20542;-62
2022/09/24 08:52:42;;;;;;;30.57;12.37;;;;;;;;;;5049277;28;20136;-62
2022/09/24 08:55:28;;;;;;;84.43;19.90;;;;;;;;;;5029682;28;20132;-63
2022/09/24 08:57:57;;;;;;;49.47;15.90;;;;;;;;;;5030768;28;20046;-62
2022/09/24 09:00:24;;;;;;;27.50;10.10;;;;;;;;;;5030799;28;20087;-62
2022/09/24 09:02:58;;;;;;;30.43;11.63;;;;;;;;;;5030703;28;20049;-62
2022/09/24 09:05:32;;;;;;;57.60;17.37;;;;;;;;;;5032508;28;20049;-63
2022/09/24 09:08:07;;;;;;;34.97;10.23;;;;;;;;;;5050696;28;20140;-62
2022/09/24 09:10:35;;;;;;;28.07;10.17;;;;;;;;;;5050046;28;20521;-62
2022/09/24 09:13:05;;;;;;;22.50;7.43;;;;;;;;;;5050399;28;20102;-62
2022/09/24 09:15:33;;;;;;;32.27;8.23;;;;;;;;;;5050478;28;20052;-62
2022/09/24 09:18:19;;;;;;;21.97;7.33;;;;;;;;;;5050836;28;20051;-62
2022/09/24 09:20:47;;;;;;;26.27;8.77;;;;;;;;;;5039715;28;20056;-62
2022/09/24 09:23:16;;;;;;;25.67;8.63;;;;;;;;;;5049996;28;20083;-62
2022/09/24 09:25:50;;;;;;;40.37;11.33;;;;;;;;;;5049743;28;20672;-62
2022/09/24 09:28:16;;;;;;;15.43;3.43;;;;;;;;;;5040778;28;20048;-63
2022/09/24 09:30:55;;;;;;;12.97;4.57;;;;;;;;;;5039950;28;20049;-62
2022/09/24 09:33:38;;;;;;;15.17;3.37;;;;;;;;;;5039012;28;20135;-62
2022/09/24 09:36:10;;;;;;;15.55;2.88;;;;;;;;;;5039713;28;20076;-62
2022/09/24 09:38:55;;;;;;;10.03;2.80;;;;;;;;;;5038699;28;20129;-63
2022/09/24 09:41:21;;;;;;;13.83;3.90;;;;;;;;;;5038936;28;20513;-62
2022/09/24 09:43:47;;;;;;;16.13;4.40;;;;;;;;;;5038945;28;20108;-62
2022/09/24 09:46:17;;;;;;;15.20;3.13;;;;;;;;;;5040254;28;20076;-63
2022/09/24 09:49:04;;;;;;;11.97;2.30;;;;;;;;;;5039117;28;20138;-63
2022/09/24 09:51:33;;;;;;;12.80;2.43;;;;;;;;;;5039954;28;20041;-63
2022/09/24 09:54:00;;;;;;;12.40;2.13;;;;;;;;;;5049897;28;20087;-63
2022/09/24 09:56:28;;;;;;;10.03;2.37;;;;;;;;;;5047232;28;20447;-63
2022/09/24 09:59:08;;;;;;;11.87;3.00;;;;;;;;;;5048043;28;20048;-63
2022/09/24 10:01:36;;;;;;;16.70;2.73;;;;;;;;;;5049553;28;20044;-63
2022/09/24 10:04:03;;;;;;;10.57;2.93;;;;;;;;;;5048947;28;20152;-63
2022/09/24 10:06:30;;;;;;;11.43;2.73;;;;;;;;;;5049627;28;20049;-63
2022/09/24 10:09:14;;;;;;;7.10;1.70;;;;;;;;;;5048800;28;20057;-63
2022/09/24 10:11:41;;;;;;;16.80;2.70;;;;;;;;;;5047312;28;20041;-63
2022/09/24 10:14:11;;;;;;;11.50;2.13;;;;;;;;;;5046881;28;20455;-63
2022/09/24 10:16:38;;;;;;;11.67;2.03;;;;;;;;;;5047086;28;20053;-63
2022/09/24 10:19:11;;;;;;;12.67;2.03;;;;;;;;;;5046285;28;20055;-63
2022/09/24 10:21:37;;;;;;;;;;;;;;;;;;5046527;28;20095;-63
2022/09/24 10:24:07;;;;;;;16.23;2.77;;;;;;;;;;5046520;28;20577;-63
2022/09/24 10:26:43;;;;;;;12.03;2.33;;;;;;;;;;5047219;28;20049;-63
2022/09/24 10:31:58;;;;;;;11.17;2.17;;;;;;;;;;5048528;28;20045;-63
2022/09/24 10:34:27;;;;;;;15.00;2.80;;;;;;;;;;5048240;28;20568;-63
2022/09/24 10:36:58;;;;;;;9.07;2.17;;;;;;;;;;5048501;28;20495;-63
2022/09/24 10:39:24;;;;;;;12.37;2.70;;;;;;;;;;5047699;28;20098;-63
2022/09/24 10:41:52;;;;;;;16.93;2.40;;;;;;;;;;5047905;28;20128;-63
2022/09/24 10:44:19;;;;;;;15.37;3.30;;;;;;;;;;5048157;28;20428;-63
2022/09/24 10:47:03;;;;;;;15.87;2.50;;;;;;;;;;5047031;28;20048;-63
2022/09/24 10:49:41;;;;;;;17.43;2.70;;;;;;;;;;5047848;28;20045;-63
2022/09/24 10:52:16;;;;;;;22.67;3.33;;;;;;;;;;5046920;28;20040;-63
2022/09/24 10:54:42;;;;;;;15.17;2.33;;;;;;;;;;5047980;28;20137;-63
2022/09/24 10:57:31;;;;;;;15.20;2.67;;;;;;;;;;5047752;28;20467;-63
2022/09/24 11:00:02;;;;;;;13.73;2.63;;;;;;;;;;5039866;28;20060;-63
2022/09/24 11:02:43;;;;;;;11.57;2.00;;;;;;;;;;5047331;28;20068;-63
2022/09/24 11:05:14;;;;;;;10.07;2.13;;;;;;;;;;5047755;28;20372;-63
2022/09/24 11:07:59;;;;;;;12.77;2.37;;;;;;;;;;5047721;28;20136;-63
2022/09/24 11:10:28;;;;;;;11.73;1.90;;;;;;;;;;5047892;28;20478;-63
2022/09/24 11:13:14;;;;;;;11.53;2.03;;;;;;;;;;5047905;28;20103;-63
2022/09/24 11:15:52;;;;;;;13.60;2.50;;;;;;;;;;5047296;28;20474;-63
2022/09/24 11:18:31;;;;;;;13.80;2.63;;;;;;;;;;5048133;28;20053;-63
2022/09/24 11:20:57;;;;;;;11.30;2.77;;;;;;;;;;5047887;28;20052;-63
2022/09/24 11:23:33;;;;;;;13.47;2.20;;;;;;;;;;5047638;28;20049;-63
2022/09/24 11:25:59;;;;;;;11.47;2.20;;;;;;;;;;5046149;28;20048;-62
2022/09/24 11:28:43;;;;;;;10.23;1.63;;;;;;;;;;5047694;28;20047;-60
2022/09/24 11:31:15;;;;;;;7.43;1.40;;;;;;;;;;5047559;28;20044;-60
2022/09/24 11:33:47;;;;;;;7.50;1.30;;;;;;;;;;5051396;28;20095;-60
2022/09/24 11:36:27;;;;;;;3.83;0.70;;;;;;;;;;5050907;28;20052;-60
2022/09/24 11:39:17;;;;;;;6.03;1.00;;;;;;;;;;5051586;28;20077;-60
2022/09/24 11:41:49;;;;;;;3.03;0.70;;;;;;;;;;5051395;28;20407;-60
2022/09/24 11:44:25;;;;;;;4.10;0.70;;;;;;;;;;5051423;28;20053;-60
2022/09/24 11:46:51;;;;;;;4.27;0.87;;;;;;;;;;5051344;28;20519;-60
2022/09/24 11:49:23;;;;;;;4.77;1.07;;;;;;;;;;5050758;28;20045;-60
2022/09/24 11:52:09;;;;;;;3.93;0.87;;;;;;;;;;5051439;28;20095;-60
2022/09/24 11:54:41;;;;;;;4.30;0.70;;;;;;;;;;5051269;28;20049;-60
2022/09/24 11:57:14;;;;;;;5.07;0.70;;;;;;;;;;5051481;28;20483;-59
2022/09/24 11:59:40;;;;;;;3.57;0.80;;;;;;;;;;5051620;28;20060;-59
2022/09/24 12:02:18;;;;;;;5.40;0.90;;;;;;;;;;5051654;28;20045;-60
2022/09/24 12:05:02;;;;;;;6.70;1.10;;;;;;;;;;5050863;28;20056;-59
2022/09/24 12:07:32;;;;;;;3.13;1.00;;;;;;;;;;5050847;28;20139;-60
2022/09/24 12:10:19;;;;;;;5.13;0.90;;;;;;;;;;5050885;28;20099;-59
2022/09/24 12:12:48;;;;;;;6.90;1.30;;;;;;;;;;5050834;28;20095;-60
2022/09/24 12:15:17;;;;;;;4.40;1.30;;;;;;;;;;5050314;28;20051;-60
2022/09/24 12:18:03;;;;;;;6.03;1.20;;;;;;;;;;5050836;28;20553;-60
2022/09/24 12:20:30;;;;;;;5.80;1.10;;;;;;;;;;5050850;28;20037;-60
2022/09/24 12:23:03;;;;;;;7.70;1.60;;;;;;;;;;5050281;28;20414;-60
2022/09/24 12:25:31;;;;;;;9.40;1.33;;;;;;;;;;5049666;28;20083;-60
2022/09/24 12:27:57;;;;;;;5.33;1.40;;;;;;;;;;5050701;28;20044;-60
2022/09/24 12:33:35;;;;;;;4.40;1.03;;;;;;;;;;5050517;28;20049;-60
2022/09/24 12:36:19;;;;;;;4.17;1.10;;;;;;;;;;5050116;28;20060;-59
2022/09/24 12:38:52;;;;;;;5.27;1.23;;;;;;;;;;5050337;28;20056;-59
2022/09/24 12:41:30;;;;;;;3.50;0.90;;;;;;;;;;5050400;28;20143;-59
2022/09/24 12:44:11;;;;;;;6.67;1.13;;;;;;;;;;5049769;28;20049;-59
2022/09/24 12:46:41;;;;;;;5.10;0.80;;;;;;;;;;5050226;28;20094;-60
2022/09/24 12:49:31;;;;;;;5.23;1.30;;;;;;;;;;5049562;28;20068;-60
2022/09/24 12:52:17;;;;;;;2.77;0.90;;;;;;;;;;5042044;28;20136;-59
2022/09/24 12:54:43;;;;;;;5.17;1.33;;;;;;;;;;5050307;28;20513;-59
2022/09/24 12:57:09;;;;;;;6.90;0.93;;;;;;;;;;5049654;28;20091;-60
2022/09/24 12:59:45;;;;;;;3.70;0.77;;;;;;;;;;5049809;28;20041;-59
2022/09/24 13:02:16;;;;;;;3.63;0.70;;;;;;;;;;5049889;28;20045;-59
2022/09/24 13:04:44;;;;;;;3.50;0.77;;;;;;;;;;5049775;28;20045;-59
2022/09/24 13:07:29;;;;;;;1.90;0.50;;;;;;;;;;5049863;28;20045;-59
2022/09/24 13:09:55;;;;;;;4.00;0.70;;;;;;;;;;5049862;28;20060;-59
2022/09/24 13:12:23;;;;;;;3.43;0.60;;;;;;;;;;5049712;28;20053;-61
2022/09/24 13:14:49;;;;;;;4.83;0.77;;;;;;;;;;5049597;28;20048;-59
2022/09/24 13:17:15;;;;;;;3.90;0.50;;;;;;;;;;5049886;28;20055;-58
2022/09/24 13:19:46;;;;;;;5.73;1.40;;;;;;;;;;5049327;28;20100;-59
2022/09/24 13:22:41;;;;;;;3.60;0.80;;;;;;;;;;5049582;28;20045;-58
2022/09/24 13:25:07;;;;;;;6.87;0.83;;;;;;;;;;5036204;28;20063;-60
2022/09/24 13:27:36;;;;;;;4.53;0.70;;;;;;;;;;5049415;28;20045;-60
2022/09/24 13:30:05;;;;;;;5.07;1.03;;;;;;;;;;5048898;28;20519;-59
2022/09/24 13:32:50;;;;;;;6.60;1.07;;;;;;;;;;5049527;28;20049;-59
2022/09/24 13:35:19;;;;;;;6.60;0.97;;;;;;;;;;5049155;28;20049;-59
2022/09/24 13:37:51;;;;;;;5.13;1.70;;;;;;;;;;5049437;28;20107;-59
2022/09/24 13:40:20;;;;;;;8.18;1.10;;;;;;;;;;5049023;28;20041;-59
2022/09/24 13:42:49;;;;;;;4.20;0.80;;;;;;;;;;5049299;28;20537;-59
2022/09/24 13:45:17;;;;;;;4.83;0.80;;;;;;;;;;5048891;28;20474;-60
2022/09/24 13:47:45;;;;;;;4.87;1.00;;;;;;;;;;5049383;28;20037;-59
2022/09/24 13:50:11;;;;;;;6.77;1.23;;;;;;;;;;5049053;28;20065;-59
2022/09/24 13:52:41;;;;;;;3.90;1.10;;;;;;;;;;5049042;28;20179;-60
2022/09/24 13:55:11;;;;;;;6.30;1.07;;;;;;;;;;5048762;28;20072;-59
2022/09/24 13:57:44;;;;;;;5.80;1.10;;;;;;;;;;5048249;28;20116;-59
2022/09/24 14:00:15;;;;;;;5.10;0.90;;;;;;;;;;5048699;28;20049;-59
2022/09/24 14:02:43;;;;;;;6.47;1.40;;;;;;;;;;5049150;28;20056;-59
2022/09/24 14:05:16;;;;;;;2.77;0.90;;;;;;;;;;5048927;28;20056;-59
2022/09/24 14:07:42;;;;;;;;;;;;;;;;;;5048986;28;20140;-59
2022/09/24 14:10:16;;;;;;;4.43;0.90;;;;;;;;;;5048675;28;20022;-59
2022/09/24 14:12:42;;;;;;;2.50;0.60;;;;;;;;;;5048964;28;20049;-59
2022/09/24 14:15:15;;;;;;;4.80;0.93;;;;;;;;;;5048517;28;20045;-59
2022/09/24 14:17:41;;;;;;;1.93;0.53;;;;;;;;;;5048611;28;20084;-59
2022/09/24 14:20:17;;;;;;;6.17;0.87;;;;;;;;;;5047985;28;20044;-59
2022/09/24 14:22:44;;;;;;;1.37;0.50;;;;;;;;;;5048503;28;20421;-59
2022/09/24 14:25:13;;;;;;;3.33;1.17;;;;;;;;;;5048183;28;20049;-59
2022/09/24 14:27:48;;;;;;;3.33;0.70;;;;;;;;;;5048605;28;20206;-59
2022/09/24 14:30:24;;;;;;;6.60;0.70;;;;;;;;;;5048319;28;20097;-59
2022/09/24 14:32:52;;;;;;;4.70;0.70;;;;;;;;;;5047711;28;20049;-59
2022/09/24 14:35:20;;;;;;;3.63;0.70;;;;;;;;;;5048019;28;20044;-59
2022/09/24 14:37:51;;;;;;;2.43;0.53;;;;;;;;;;5048586;28;20040;-59
2022/09/24 14:40:18;;;;;;;10.80;1.60;;;;;;;;;;5048223;28;20400;-59
2022/09/24 14:42:49;;;;;;;8.03;0.80;;;;;;;;;;5047766;28;20044;-59
2022/09/24 14:45:19;;;;;;;3.60;0.70;;;;;;;;;;5048103;28;20091;-59
2022/09/24 14:47:45;;;;;;;5.90;1.40;;;;;;;;;;5048313;28;20037;-59
2022/09/24 14:50:34;;;;;;;3.13;0.60;;;;;;;;;;5046364;28;20396;-59